sensor_id;sensor_type;location;lat;lon;timestamp;pressure;altitude;pressure_sealevel;temperature;humidity
34205;BME280;20471;49.680;20.074;2022-10-23T00:01:40;97389.20;;;12.08;83.59
34205;BME280;20471;49.680;20.074;2022-10-23T00:04:09;97392.44;;;12.08;83.57
34205;BME280;20471;49.680;20.074;2022-10-23T00:06:39;97394.09;;;12.09;83.59
34205;BME280;20471;49.680;20.074;2022-10-23T00:09:07;97395.39;;;12.06;83.66
34205;BME280;20471;49.680;20.074;2022-10-23T00:11:35;97388.54;;;12.04;83.74
34205;BME280;20471;49.680;20.074;2022-10-23T00:14:04;97392.20;;;12.00;83.77
34205;BME280;20471;49.680;20.074;2022-10-23T00:16:31;97390.75;;;11.98;83.78
34205;BME280;20471;49.680;20.074;2022-10-23T00:18:58;97394.81;;;11.98;83.83
34205;BME280;20471;49.680;20.074;2022-10-23T00:21:25;97398.13;;;12.00;83.92
34205;BME280;20471;49.680;20.074;2022-10-23T00:23:52;97405.64;;;11.98;83.96
34205;BME280;20471;49.680;20.074;2022-10-23T00:26:19;97407.81;;;11.98;84.02
34205;BME280;20471;49.680;20.074;2022-10-23T00:28:50;97412.09;;;11.97;84.06
34205;BME280;20471;49.680;20.074;2022-10-23T00:31:17;97416.77;;;11.99;84.11
34205;BME280;20471;49.680;20.074;2022-10-23T00:33:45;97420.39;;;12.02;84.13
34205;BME280;20471;49.680;20.074;2022-10-23T00:36:14;97430.47;;;12.04;84.14
34205;BME280;20471;49.680;20.074;2022-10-23T00:38:41;97428.29;;;12.03;84.13
34205;BME280;20471;49.680;20.074;2022-10-23T00:41:12;97430.16;;;12.03;84.13
34205;BME280;20471;49.680;20.074;2022-10-23T00:44:01;97439.94;;;12.04;84.14
34205;BME280;20471;49.680;20.074;2022-10-23T00:46:32;97430.78;;;12.05;84.16
34205;BME280;20471;49.680;20.074;2022-10-23T00:49:00;97431.83;;;12.04;84.23
34205;BME280;20471;49.680;20.074;2022-10-23T00:51:30;97431.95;;;12.00;84.22
34205;BME280;20471;49.680;20.074;2022-10-23T00:53:59;97434.66;;;12.00;84.24
34205;BME280;20471;49.680;20.074;2022-10-23T00:56:27;97437.05;;;11.99;84.28
34205;BME280;20471;49.680;20.074;2022-10-23T00:58:56;97435.70;;;11.99;84.29
34205;BME280;20471;49.680;20.074;2022-10-23T01:01:23;97440.06;;;12.00;84.38
34205;BME280;20471;49.680;20.074;2022-10-23T01:03:50;97443.51;;;11.98;84.43
34205;BME280;20471;49.680;20.074;2022-10-23T01:06:33;97444.80;;;11.95;84.47
34205;BME280;20471;49.680;20.074;2022-10-23T01:09:45;97446.21;;;11.98;84.50
34205;BME280;20471;49.680;20.074;2022-10-23T01:17:47;97448.30;;;11.96;84.56
34205;BME280;20471;49.680;20.074;2022-10-23T01:29:09;97454.33;;;11.98;84.50
34205;BME280;20471;49.680;20.074;2022-10-23T01:37:13;97461.55;;;11.95;84.63
34205;BME280;20471;49.680;20.074;2022-10-23T01:39:46;97453.13;;;11.94;84.68
34205;BME280;20471;49.680;20.074;2022-10-23T01:42:23;97460.20;;;11.95;84.68
34205;BME280;20471;49.680;20.074;2022-10-23T01:44:49;97462.29;;;11.93;84.69
34205;BME280;20471;49.680;20.074;2022-10-23T01:47:21;97468.53;;;11.93;84.70
34205;BME280;20471;49.680;20.074;2022-10-23T01:49:49;97479.04;;;11.92;84.71
34205;BME280;20471;49.680;20.074;2022-10-23T01:52:17;97481.23;;;11.93;84.71
34205;BME280;20471;49.680;20.074;2022-10-23T01:54:46;97478.30;;;11.94;84.71
34205;BME280;20471;49.680;20.074;2022-10-23T01:57:17;97485.59;;;11.94;84.71
34205;BME280;20471;49.680;20.074;2022-10-23T01:59:51;97480.82;;;11.89;84.76
34205;BME280;20471;49.680;20.074;2022-10-23T02:02:21;97480.61;;;11.90;84.80
34205;BME280;20471;49.680;20.074;2022-10-23T02:04:55;97482.27;;;11.92;84.80
34205;BME280;20471;49.680;20.074;2022-10-23T02:07:27;97479.78;;;11.90;84.71
34205;BME280;20471;49.680;20.074;2022-10-23T02:09:54;97474.89;;;11.89;84.72
34205;BME280;20471;49.680;20.074;2022-10-23T02:12:34;97480.82;;;11.89;84.72
34205;BME280;20471;49.680;20.074;2022-10-23T02:15:08;97482.17;;;11.89;84.69
34205;BME280;20471;49.680;20.074;2022-10-23T02:17:48;97473.34;;;11.84;84.65
34205;BME280;20471;49.680;20.074;2022-10-23T02:20:27;97470.64;;;11.84;84.59
34205;BME280;20471;49.680;20.074;2022-10-23T02:23:03;97475.74;;;11.83;84.54
34205;BME280;20471;49.680;20.074;2022-10-23T02:25:38;97483.58;;;11.82;84.41
34205;BME280;20471;49.680;20.074;2022-10-23T02:28:09;97489.72;;;11.80;84.32
34205;BME280;20471;49.680;20.074;2022-10-23T02:30:39;97485.14;;;11.74;84.21
34205;BME280;20471;49.680;20.074;2022-10-23T02:33:08;97488.51;;;11.70;84.19
34205;BME280;20471;49.680;20.074;2022-10-23T02:35:35;97490.50;;;11.65;84.21
34205;BME280;20471;49.680;20.074;2022-10-23T02:38:02;97489.88;;;11.63;84.22
34205;BME280;20471;49.680;20.074;2022-10-23T02:40:39;97489.41;;;11.57;84.14
34205;BME280;20471;49.680;20.074;2022-10-23T02:43:20;97494.50;;;11.56;84.14
34205;BME280;20471;49.680;20.074;2022-10-23T02:45:53;97494.92;;;11.53;84.11
34205;BME280;20471;49.680;20.074;2022-10-23T02:48:29;97494.52;;;11.49;84.02
34205;BME280;20471;49.680;20.074;2022-10-23T02:51:03;97492.48;;;11.45;83.92
34205;BME280;20471;49.680;20.074;2022-10-23T02:53:54;97501.31;;;11.43;83.88
34205;BME280;20471;49.680;20.074;2022-10-23T02:56:37;97496.33;;;11.40;83.85
34205;BME280;20471;49.680;20.074;2022-10-23T02:59:15;97494.19;;;11.33;83.79
34205;BME280;20471;49.680;20.074;2022-10-23T03:04:47;97500.11;;;11.32;83.96
34205;BME280;20471;49.680;20.074;2022-10-23T03:07:17;97500.33;;;11.31;83.98
34205;BME280;20471;49.680;20.074;2022-10-23T03:09:44;97497.52;;;11.28;83.98
34205;BME280;20471;49.680;20.074;2022-10-23T03:12:11;97499.91;;;11.27;84.01
34205;BME280;20471;49.680;20.074;2022-10-23T03:14:37;97504.48;;;11.27;83.93
34205;BME280;20471;49.680;20.074;2022-10-23T03:17:06;97512.48;;;11.24;83.76
34205;BME280;20471;49.680;20.074;2022-10-23T03:19:32;97510.86;;;11.16;83.61
34205;BME280;20471;49.680;20.074;2022-10-23T03:21:59;97509.09;;;11.13;83.65
34205;BME280;20471;49.680;20.074;2022-10-23T03:24:25;97518.76;;;11.11;83.66
34205;BME280;20471;49.680;20.074;2022-10-23T03:26:52;97510.06;;;11.03;83.63
34205;BME280;20471;49.680;20.074;2022-10-23T03:29:18;97509.05;;;10.97;83.76
34205;BME280;20471;49.680;20.074;2022-10-23T03:31:45;97505.11;;;10.93;83.79
34205;BME280;20471;49.680;20.074;2022-10-23T03:34:11;97504.59;;;10.94;83.95
34205;BME280;20471;49.680;20.074;2022-10-23T03:36:40;97507.08;;;10.95;83.99
34205;BME280;20471;49.680;20.074;2022-10-23T03:39:06;97505.73;;;10.95;84.04
34205;BME280;20471;49.680;20.074;2022-10-23T03:41:33;97513.63;;;10.97;83.95
34205;BME280;20471;49.680;20.074;2022-10-23T03:43:59;97513.83;;;10.95;83.91
34205;BME280;20471;49.680;20.074;2022-10-23T03:46:26;97511.33;;;10.87;83.84
34205;BME280;20471;49.680;20.074;2022-10-23T03:48:52;97516.55;;;10.82;83.93
34205;BME280;20471;49.680;20.074;2022-10-23T03:51:21;97509.80;;;10.82;84.02
34205;BME280;20471;49.680;20.074;2022-10-23T03:53:47;97510.74;;;10.85;84.03
34205;BME280;20471;49.680;20.074;2022-10-23T03:56:14;97511.47;;;10.83;83.81
34205;BME280;20471;49.680;20.074;2022-10-23T03:58:40;97515.71;;;10.75;83.73
34205;BME280;20471;49.680;20.074;2022-10-23T04:01:07;97519.69;;;10.72;83.87
34205;BME280;20471;49.680;20.074;2022-10-23T04:03:35;97517.92;;;10.69;83.90
34205;BME280;20471;49.680;20.074;2022-10-23T04:06:01;97518.95;;;10.68;83.92
34205;BME280;20471;49.680;20.074;2022-10-23T04:08:28;97513.87;;;10.69;83.92
34205;BME280;20471;49.680;20.074;2022-10-23T04:10:54;97511.27;;;10.65;83.83
34205;BME280;20471;49.680;20.074;2022-10-23T04:13:21;97510.13;;;10.63;83.84
34205;BME280;20471;49.680;20.074;2022-10-23T04:15:50;97523.94;;;10.64;83.87
34205;BME280;20471;49.680;20.074;2022-10-23T04:18:17;97520.40;;;10.64;83.65
34205;BME280;20471;49.680;20.074;2022-10-23T04:20:49;97523.52;;;10.54;83.37
34205;BME280;20471;49.680;20.074;2022-10-23T04:23:16;97526.33;;;10.43;83.45
34205;BME280;20471;49.680;20.074;2022-10-23T04:25:43;97528.84;;;10.38;83.55
34205;BME280;20471;49.680;20.074;2022-10-23T04:28:10;97531.31;;;10.33;83.65
34205;BME280;20471;49.680;20.074;2022-10-23T04:30:36;97528.41;;;10.35;83.77
34205;BME280;20471;49.680;20.074;2022-10-23T04:33:03;97532.66;;;10.33;83.45
34205;BME280;20471;49.680;20.074;2022-10-23T04:35:29;97528.71;;;10.29;83.25
34205;BME280;20471;49.680;20.074;2022-10-23T04:37:56;97528.20;;;10.23;83.11
34205;BME280;20471;49.680;20.074;2022-10-23T04:40:22;97526.94;;;10.19;83.05
34205;BME280;20471;49.680;20.074;2022-10-23T04:42:49;97536.24;;;10.10;82.91
34205;BME280;20471;49.680;20.074;2022-10-23T04:45:16;97532.91;;;10.08;83.11
34205;BME280;20471;49.680;20.074;2022-10-23T04:47:42;97531.13;;;10.04;83.06
34205;BME280;20471;49.680;20.074;2022-10-23T04:50:09;97534.34;;;10.04;83.11
34205;BME280;20471;49.680;20.074;2022-10-23T04:52:35;97532.40;;;10.02;82.98
34205;BME280;20471;49.680;20.074;2022-10-23T04:55:02;97539.03;;;9.99;82.84
34205;BME280;20471;49.680;20.074;2022-10-23T04:57:29;97538.28;;;9.95;82.73
34205;BME280;20471;49.680;20.074;2022-10-23T04:59:55;97539.83;;;9.87;82.61
34205;BME280;20471;49.680;20.074;2022-10-23T05:02:22;97537.01;;;9.78;82.83
34205;BME280;20471;49.680;20.074;2022-10-23T05:04:49;97535.74;;;9.73;83.11
34205;BME280;20471;49.680;20.074;2022-10-23T05:07:15;97530.43;;;9.69;83.21
34205;BME280;20471;49.680;20.074;2022-10-23T05:09:42;97536.53;;;9.67;83.24
34205;BME280;20471;49.680;20.074;2022-10-23T05:12:10;97539.55;;;9.68;83.27
34205;BME280;20471;49.680;20.074;2022-10-23T05:14:36;97540.81;;;9.66;82.89
34205;BME280;20471;49.680;20.074;2022-10-23T05:17:12;97545.45;;;9.61;82.61
34205;BME280;20471;49.680;20.074;2022-10-23T05:19:46;97540.84;;;9.55;82.45
34205;BME280;20471;49.680;20.074;2022-10-23T05:22:17;97539.61;;;9.51;82.40
34205;BME280;20471;49.680;20.074;2022-10-23T05:24:45;97543.09;;;9.45;82.33
34205;BME280;20471;49.680;20.074;2022-10-23T05:27:11;97539.34;;;9.39;82.50
34205;BME280;20471;49.680;20.074;2022-10-23T05:29:38;97532.56;;;9.33;82.74
34205;BME280;20471;49.680;20.074;2022-10-23T05:32:06;97537.00;;;9.30;82.90
34205;BME280;20471;49.680;20.074;2022-10-23T05:34:35;97534.62;;;9.31;83.07
34205;BME280;20471;49.680;20.074;2022-10-23T05:37:05;97530.27;;;9.30;83.12
34205;BME280;20471;49.680;20.074;2022-10-23T05:39:33;97534.30;;;9.30;83.00
34205;BME280;20471;49.680;20.074;2022-10-23T05:42:00;97535.37;;;9.29;82.94
34205;BME280;20471;49.680;20.074;2022-10-23T05:44:27;97536.72;;;9.29;82.85
34205;BME280;20471;49.680;20.074;2022-10-23T05:46:54;97530.38;;;9.26;82.57
34205;BME280;20471;49.680;20.074;2022-10-23T05:49:23;97533.27;;;9.24;82.59
34205;BME280;20471;49.680;20.074;2022-10-23T05:51:50;97533.14;;;9.22;82.53
34205;BME280;20471;49.680;20.074;2022-10-23T05:54:17;97537.18;;;9.22;82.71
34205;BME280;20471;49.680;20.074;2022-10-23T05:56:43;97532.11;;;9.23;82.67
34205;BME280;20471;49.680;20.074;2022-10-23T05:59:10;97532.42;;;9.24;82.65
34205;BME280;20471;49.680;20.074;2022-10-23T06:01:37;97533.45;;;9.23;82.59
34205;BME280;20471;49.680;20.074;2022-10-23T06:04:04;97538.65;;;9.24;82.68
34205;BME280;20471;49.680;20.074;2022-10-23T06:06:30;97542.17;;;9.25;82.70
34205;BME280;20471;49.680;20.074;2022-10-23T06:08:57;97539.99;;;9.24;82.79
34205;BME280;20471;49.680;20.074;2022-10-23T06:11:24;97539.16;;;9.24;82.90
34205;BME280;20471;49.680;20.074;2022-10-23T06:13:50;97540.44;;;9.28;83.19
34205;BME280;20471;49.680;20.074;2022-10-23T06:16:20;97551.11;;;9.32;83.31
34205;BME280;20471;49.680;20.074;2022-10-23T06:18:49;97554.56;;;9.36;83.29
34205;BME280;20471;49.680;20.074;2022-10-23T06:21:16;97547.23;;;9.41;83.24
34205;BME280;20471;49.680;20.074;2022-10-23T06:23:44;97545.47;;;9.44;83.26
34205;BME280;20471;49.680;20.074;2022-10-23T06:26:13;97553.98;;;9.48;83.27
34205;BME280;20471;49.680;20.074;2022-10-23T06:28:41;97556.80;;;9.50;83.29
34205;BME280;20471;49.680;20.074;2022-10-23T06:31:14;97562.63;;;9.54;83.38
34205;BME280;20471;49.680;20.074;2022-10-23T06:33:38;97565.85;;;9.60;83.40
34205;BME280;20471;49.680;20.074;2022-10-23T06:36:05;97567.21;;;9.66;83.44
34205;BME280;20471;49.680;20.074;2022-10-23T06:38:36;97572.64;;;9.73;83.49
34205;BME280;20471;49.680;20.074;2022-10-23T06:41:15;97578.24;;;9.78;83.54
34205;BME280;20471;49.680;20.074;2022-10-23T06:43:43;97573.92;;;9.84;83.58
34205;BME280;20471;49.680;20.074;2022-10-23T06:46:09;97578.20;;;9.89;83.66
34205;BME280;20471;49.680;20.074;2022-10-23T06:48:36;97582.77;;;9.95;83.67
34205;BME280;20471;49.680;20.074;2022-10-23T06:51:05;97582.69;;;9.99;83.67
34205;BME280;20471;49.680;20.074;2022-10-23T06:53:33;97590.98;;;10.04;83.70
34205;BME280;20471;49.680;20.074;2022-10-23T06:56:01;97590.19;;;10.10;83.78
34205;BME280;20471;49.680;20.074;2022-10-23T06:58:29;97589.88;;;10.16;83.91
34205;BME280;20471;49.680;20.074;2022-10-23T07:01:04;97584.22;;;10.21;84.06
34205;BME280;20471;49.680;20.074;2022-10-23T07:03:32;97585.25;;;10.27;84.14
34205;BME280;20471;49.680;20.074;2022-10-23T07:06:03;97586.00;;;10.31;84.32
34205;BME280;20471;49.680;20.074;2022-10-23T07:08:31;97579.88;;;10.40;84.50
34205;BME280;20471;49.680;20.074;2022-10-23T07:11:08;97577.41;;;10.45;84.58
34205;BME280;20471;49.680;20.074;2022-10-23T07:13:33;97588.70;;;10.51;84.57
34205;BME280;20471;49.680;20.074;2022-10-23T07:16:13;97593.72;;;10.61;84.61
34205;BME280;20471;49.680;20.074;2022-10-23T07:18:41;97602.13;;;10.68;84.62
34205;BME280;20471;49.680;20.074;2022-10-23T07:21:08;97596.10;;;10.79;84.70
34205;BME280;20471;49.680;20.074;2022-10-23T07:23:35;97591.31;;;10.88;84.68
34205;BME280;20471;49.680;20.074;2022-10-23T07:26:12;97592.16;;;10.95;84.67
34205;BME280;20471;49.680;20.074;2022-10-23T07:28:36;97592.98;;;11.09;84.71
34205;BME280;20471;49.680;20.074;2022-10-23T07:31:03;97590.64;;;11.26;84.72
34205;BME280;20471;49.680;20.074;2022-10-23T07:33:30;97589.33;;;11.48;84.77
34205;BME280;20471;49.680;20.074;2022-10-23T07:35:57;97590.59;;;11.74;84.80
34205;BME280;20471;49.680;20.074;2022-10-23T07:38:23;97587.08;;;12.03;84.43
34205;BME280;20471;49.680;20.074;2022-10-23T07:40:50;97585.08;;;12.23;84.25
34205;BME280;20471;49.680;20.074;2022-10-23T07:43:16;97584.18;;;12.51;84.15
34205;BME280;20471;49.680;20.074;2022-10-23T07:45:46;97577.43;;;12.76;83.76
34205;BME280;20471;49.680;20.074;2022-10-23T07:48:13;97584.33;;;12.97;83.36
34205;BME280;20471;49.680;20.074;2022-10-23T07:50:40;97587.97;;;13.09;82.96
34205;BME280;20471;49.680;20.074;2022-10-23T07:53:07;97590.59;;;13.22;82.88
34205;BME280;20471;49.680;20.074;2022-10-23T07:55:36;97585.95;;;13.39;82.74
34205;BME280;20471;49.680;20.074;2022-10-23T07:58:04;97588.95;;;13.58;82.64
34205;BME280;20471;49.680;20.074;2022-10-23T08:00:31;97599.74;;;13.74;82.52
34205;BME280;20471;49.680;20.074;2022-10-23T08:02:57;97597.09;;;13.85;82.19
34205;BME280;20471;49.680;20.074;2022-10-23T08:05:24;97601.53;;;13.98;82.00
34205;BME280;20471;49.680;20.074;2022-10-23T08:07:51;97607.92;;;14.13;81.83
34205;BME280;20471;49.680;20.074;2022-10-23T08:10:17;97602.55;;;14.24;81.54
34205;BME280;20471;49.680;20.074;2022-10-23T08:12:44;97596.86;;;14.35;81.18
34205;BME280;20471;49.680;20.074;2022-10-23T08:15:10;97603.16;;;14.38;80.90
34205;BME280;20471;49.680;20.074;2022-10-23T08:17:37;97603.61;;;14.53;80.93
34205;BME280;20471;49.680;20.074;2022-10-23T08:20:04;97601.53;;;14.67;80.37
34205;BME280;20471;49.680;20.074;2022-10-23T08:22:31;97595.66;;;14.82;80.20
34205;BME280;20471;49.680;20.074;2022-10-23T08:24:59;97595.48;;;14.97;80.09
34205;BME280;20471;49.680;20.074;2022-10-23T08:27:26;97592.68;;;15.16;79.63
34205;BME280;20471;49.680;20.074;2022-10-23T08:29:53;97589.50;;;15.30;79.00
34205;BME280;20471;49.680;20.074;2022-10-23T08:32:19;97594.63;;;15.53;79.12
34205;BME280;20471;49.680;20.074;2022-10-23T08:34:46;97599.89;;;15.80;78.50
34205;BME280;20471;49.680;20.074;2022-10-23T08:37:12;97599.89;;;15.94;78.18
34205;BME280;20471;49.680;20.074;2022-10-23T08:39:39;97590.09;;;16.07;77.41
34205;BME280;20471;49.680;20.074;2022-10-23T08:42:14;97589.52;;;16.34;77.05
34205;BME280;20471;49.680;20.074;2022-10-23T08:45:39;97591.28;;;16.40;75.61
34205;BME280;20471;49.680;20.074;2022-10-23T08:47:35;97587.63;;;16.48;75.90
34205;BME280;20471;49.680;20.074;2022-10-23T08:53:02;97580.59;;;16.81;75.42
34205;BME280;20471;49.680;20.074;2022-10-23T08:55:35;97581.39;;;16.96;75.08
34205;BME280;20471;49.680;20.074;2022-10-23T09:00:50;97584.43;;;17.33;74.35
34205;BME280;20471;49.680;20.074;2022-10-23T09:03:17;97580.72;;;17.39;74.19
34205;BME280;20471;49.680;20.074;2022-10-23T09:06:05;97581.25;;;17.38;73.26
34205;BME280;20471;49.680;20.074;2022-10-23T09:11:38;97581.52;;;17.39;73.03
34205;BME280;20471;49.680;20.074;2022-10-23T09:14:34;97577.02;;;17.47;72.92
34205;BME280;20471;49.680;20.074;2022-10-23T09:19:49;97576.03;;;17.73;72.34
34205;BME280;20471;49.680;20.074;2022-10-23T09:22:18;97580.84;;;17.87;71.86
34205;BME280;20471;49.680;20.074;2022-10-23T09:24:44;97579.14;;;18.03;71.64
34205;BME280;20471;49.680;20.074;2022-10-23T09:27:15;97573.25;;;18.14;70.76
34205;BME280;20471;49.680;20.074;2022-10-23T09:29:51;97577.06;;;18.13;70.46
34205;BME280;20471;49.680;20.074;2022-10-23T09:32:35;97584.30;;;18.24;70.26
34205;BME280;20471;49.680;20.074;2022-10-23T09:35:03;97585.19;;;18.29;69.73
34205;BME280;20471;49.680;20.074;2022-10-23T09:37:32;97581.95;;;18.32;69.10
34205;BME280;20471;49.680;20.074;2022-10-23T09:40:20;97582.24;;;18.36;69.20
34205;BME280;20471;49.680;20.074;2022-10-23T09:42:57;97585.05;;;18.41;68.78
34205;BME280;20471;49.680;20.074;2022-10-23T09:45:30;97583.42;;;18.43;68.63
34205;BME280;20471;49.680;20.074;2022-10-23T09:48:17;97578.86;;;18.51;68.26
34205;BME280;20471;49.680;20.074;2022-10-23T09:50:52;97574.59;;;18.60;68.05
34205;BME280;20471;49.680;20.074;2022-10-23T09:53:32;97578.00;;;18.72;67.81
34205;BME280;20471;49.680;20.074;2022-10-23T09:56:11;97578.91;;;18.80;67.19
34205;BME280;20471;49.680;20.074;2022-10-23T09:58:58;97571.33;;;18.90;66.91
34205;BME280;20471;49.680;20.074;2022-10-23T10:01:25;97573.04;;;18.98;66.40
34205;BME280;20471;49.680;20.074;2022-10-23T10:03:53;97562.17;;;19.08;66.34
34205;BME280;20471;49.680;20.074;2022-10-23T10:06:27;97553.76;;;19.15;65.97
34205;BME280;20471;49.680;20.074;2022-10-23T10:09:01;97548.61;;;19.24;65.88
34205;BME280;20471;49.680;20.074;2022-10-23T10:14:41;97556.30;;;19.27;64.60
34205;BME280;20471;49.680;20.074;2022-10-23T10:23:18;97541.59;;;19.38;64.09
34205;BME280;20471;49.680;20.074;2022-10-23T10:25:52;97548.03;;;19.54;64.28
34205;BME280;20471;49.680;20.074;2022-10-23T10:37:05;97526.60;;;20.05;62.62
34205;BME280;20471;49.680;20.074;2022-10-23T10:45:25;97517.63;;;20.25;61.14
34205;BME280;20471;49.680;20.074;2022-10-23T10:51:02;97505.65;;;20.49;59.91
34205;BME280;20471;49.680;20.074;2022-10-23T10:56:30;97493.33;;;20.74;58.71
34205;BME280;20471;49.680;20.074;2022-10-23T10:59:01;97494.13;;;20.95;57.85
34205;BME280;20471;49.680;20.074;2022-10-23T11:04:39;97496.88;;;21.10;57.54
34205;BME280;20471;49.680;20.074;2022-10-23T11:07:10;97489.99;;;21.33;57.18
34205;BME280;20471;49.680;20.074;2022-10-23T11:09:37;97485.26;;;21.54;56.81
34205;BME280;20471;49.680;20.074;2022-10-23T11:12:04;97483.02;;;21.66;56.43
34205;BME280;20471;49.680;20.074;2022-10-23T11:14:32;97473.95;;;21.73;55.89
34205;BME280;20471;49.680;20.074;2022-10-23T11:19:36;97472.81;;;21.77;55.30
34205;BME280;20471;49.680;20.074;2022-10-23T11:22:11;97464.55;;;21.84;53.41
34205;BME280;20471;49.680;20.074;2022-10-23T11:24:56;97461.75;;;21.92;54.27
34205;BME280;20471;49.680;20.074;2022-10-23T11:36:31;97455.05;;;22.57;53.18
34205;BME280;20471;49.680;20.074;2022-10-23T11:39:25;97452.80;;;22.59;52.40
34205;BME280;20471;49.680;20.074;2022-10-23T11:47:38;97446.82;;;22.89;51.78
34205;BME280;20471;49.680;20.074;2022-10-23T11:52:54;97430.48;;;22.97;51.13
34205;BME280;20471;49.680;20.074;2022-10-23T11:55:27;97426.17;;;22.89;50.85
34205;BME280;20471;49.680;20.074;2022-10-23T12:00:48;97424.77;;;22.94;50.51
34205;BME280;20471;49.680;20.074;2022-10-23T12:03:29;97423.81;;;23.06;50.66
34205;BME280;20471;49.680;20.074;2022-10-23T12:06:15;97417.95;;;23.13;50.27
34205;BME280;20471;49.680;20.074;2022-10-23T12:08:39;97425.23;;;23.01;49.63
34205;BME280;20471;49.680;20.074;2022-10-23T12:13:55;97415.67;;;22.59;49.10
34205;BME280;20471;49.680;20.074;2022-10-23T12:16:21;97416.04;;;22.48;49.57
34205;BME280;20471;49.680;20.074;2022-10-23T12:18:52;97414.28;;;22.62;49.68
34205;BME280;20471;49.680;20.074;2022-10-23T12:21:21;97407.23;;;22.82;49.79
34205;BME280;20471;49.680;20.074;2022-10-23T12:24:04;97402.94;;;23.00;49.53
34205;BME280;20471;49.680;20.074;2022-10-23T12:29:45;97396.11;;;23.43;48.89
34205;BME280;20471;49.680;20.074;2022-10-23T12:38:09;97384.16;;;23.76;48.00
34205;BME280;20471;49.680;20.074;2022-10-23T12:40:37;97379.00;;;23.91;47.58
34205;BME280;20471;49.680;20.074;2022-10-23T12:43:19;97373.25;;;23.87;47.12
34205;BME280;20471;49.680;20.074;2022-10-23T12:45:48;97369.53;;;23.78;46.86
34205;BME280;20471;49.680;20.074;2022-10-23T12:48:20;97364.08;;;23.73;46.95
34205;BME280;20471;49.680;20.074;2022-10-23T12:50:50;97361.91;;;23.70;46.53
34205;BME280;20471;49.680;20.074;2022-10-23T12:53:19;97362.05;;;23.60;46.47
34205;BME280;20471;49.680;20.074;2022-10-23T12:55:55;97359.98;;;23.47;46.09
34205;BME280;20471;49.680;20.074;2022-10-23T12:58:32;97360.30;;;23.21;45.84
34205;BME280;20471;49.680;20.074;2022-10-23T13:01:02;97355.73;;;22.88;45.75
34205;BME280;20471;49.680;20.074;2022-10-23T13:03:32;97352.32;;;22.70;46.10
34205;BME280;20471;49.680;20.074;2022-10-23T13:06:01;97351.06;;;22.57;45.91
34205;BME280;20471;49.680;20.074;2022-10-23T13:08:38;97356.72;;;22.39;45.98
34205;BME280;20471;49.680;20.074;2022-10-23T13:11:10;97355.34;;;22.39;46.33
34205;BME280;20471;49.680;20.074;2022-10-23T13:13:41;97351.66;;;22.51;46.12
34205;BME280;20471;49.680;20.074;2022-10-23T13:16:16;97353.03;;;22.51;46.04
34205;BME280;20471;49.680;20.074;2022-10-23T13:18:44;97357.67;;;22.56;46.11
34205;BME280;20471;49.680;20.074;2022-10-23T13:21:22;97359.23;;;22.64;46.21
34205;BME280;20471;49.680;20.074;2022-10-23T13:23:51;97360.36;;;22.61;45.87
34205;BME280;20471;49.680;20.074;2022-10-23T13:29:01;97363.21;;;22.51;45.83
34205;BME280;20471;49.680;20.074;2022-10-23T13:31:31;97359.44;;;22.44;45.97
34205;BME280;20471;49.680;20.074;2022-10-23T13:36:35;97350.74;;;22.32;45.92
34205;BME280;20471;49.680;20.074;2022-10-23T13:39:12;97353.49;;;22.32;46.29
34205;BME280;20471;49.680;20.074;2022-10-23T13:41:44;97351.23;;;22.37;46.45
34205;BME280;20471;49.680;20.074;2022-10-23T13:44:15;97348.20;;;22.38;46.31
34205;BME280;20471;49.680;20.074;2022-10-23T13:46:44;97340.52;;;22.35;46.19
34205;BME280;20471;49.680;20.074;2022-10-23T13:49:11;97340.89;;;22.23;46.10
34205;BME280;20471;49.680;20.074;2022-10-23T13:51:50;97344.00;;;22.14;46.29
34205;BME280;20471;49.680;20.074;2022-10-23T13:54:25;97335.22;;;22.10;46.46
34205;BME280;20471;49.680;20.074;2022-10-23T13:56:50;97336.11;;;22.03;46.52
34205;BME280;20471;49.680;20.074;2022-10-23T13:59:17;97330.91;;;21.99;46.51
34205;BME280;20471;49.680;20.074;2022-10-23T14:01:45;97338.91;;;21.92;46.39
34205;BME280;20471;49.680;20.074;2022-10-23T14:04:13;97335.95;;;21.84;46.44
34205;BME280;20471;49.680;20.074;2022-10-23T14:06:41;97335.56;;;21.59;46.52
34205;BME280;20471;49.680;20.074;2022-10-23T14:09:16;97336.17;;;21.48;46.86
34205;BME280;20471;49.680;20.074;2022-10-23T14:11:43;97340.02;;;21.47;46.92
34205;BME280;20471;49.680;20.074;2022-10-23T14:14:10;97344.15;;;21.45;46.98
34205;BME280;20471;49.680;20.074;2022-10-23T14:16:37;97343.62;;;21.38;47.24
34205;BME280;20471;49.680;20.074;2022-10-23T14:19:03;97344.76;;;21.32;47.47
34205;BME280;20471;49.680;20.074;2022-10-23T14:21:30;97343.98;;;21.18;48.57
34205;BME280;20471;49.680;20.074;2022-10-23T14:23:57;97348.70;;;21.00;49.14
34205;BME280;20471;49.680;20.074;2022-10-23T14:26:26;97337.80;;;20.75;49.66
34205;BME280;20471;49.680;20.074;2022-10-23T14:28:56;97345.78;;;20.64;49.88
34205;BME280;20471;49.680;20.074;2022-10-23T14:31:23;97345.25;;;20.52;50.08
34205;BME280;20471;49.680;20.074;2022-10-23T14:33:53;97348.28;;;20.40;50.32
34205;BME280;20471;49.680;20.074;2022-10-23T14:36:22;97355.63;;;20.29;50.65
34205;BME280;20471;49.680;20.074;2022-10-23T14:38:49;97359.20;;;20.22;51.01
34205;BME280;20471;49.680;20.074;2022-10-23T14:41:16;97353.17;;;20.10;51.45
34205;BME280;20471;49.680;20.074;2022-10-23T14:43:43;97351.25;;;20.00;51.71
34205;BME280;20471;49.680;20.074;2022-10-23T14:46:12;97357.00;;;19.89;52.01
34205;BME280;20471;49.680;20.074;2022-10-23T14:48:41;97356.43;;;19.76;52.29
34205;BME280;20471;49.680;20.074;2022-10-23T14:51:17;97354.20;;;19.63;52.50
34205;BME280;20471;49.680;20.074;2022-10-23T14:53:58;97357.72;;;19.49;52.84
34205;BME280;20471;49.680;20.074;2022-10-23T14:56:22;97355.72;;;19.34;53.21